Terminal Aerodrome Forecast
Issued by NWS Twin Cities, MN

Home | Current Version | Previous Version | Graphics & Text | Print | Product List | Glossary On
Versions: 1 2 3 4 5 6 7 8 9 10 11 12 13 14 15 16 17 18 19 20 21 22 23 24 25 26 27
119
FTUS43 KMPX 090835 AAA
TAFMSP
TAF AMD
KMSP 090835Z 0909/1012 33014G21KT P6SM SCT025 BKN050
     FM091400 32015G22KT P6SM SCT200
     FM100300 31010KT P6SM SKC=

USA.gov is the U.S. government's official web portal to all federal, state and local government web resources and services.